createdAt,value
2022-09-30T00:01:26.240Z,8.90
2022-09-30T00:03:53.734Z,9.00
2022-09-30T00:06:20.928Z,8.90
2022-09-30T00:08:47.950Z,8.90
2022-09-30T00:11:16.368Z,9.00
2022-09-30T00:13:43.572Z,9.10
2022-09-30T00:16:10.840Z,9.10
2022-09-30T00:18:38.205Z,9.10
2022-09-30T00:21:05.394Z,9.10
2022-09-30T00:23:32.378Z,9.00
2022-09-30T00:26:02.532Z,9.00
2022-09-30T00:28:29.583Z,9.10
2022-09-30T00:31:00.433Z,9.10
2022-09-30T00:33:27.630Z,9.00
2022-09-30T00:35:54.601Z,9.00
2022-09-30T00:38:21.584Z,9.00
2022-09-30T00:40:49.155Z,9.10
2022-09-30T00:43:17.319Z,9.10
2022-09-30T00:45:47.289Z,9.00
2022-09-30T00:48:15.943Z,9.00
2022-09-30T00:50:47.220Z,9.00
2022-09-30T00:53:16.381Z,9.00
2022-09-30T00:55:48.454Z,9.00
2022-09-30T00:58:21.354Z,8.90
2022-09-30T01:00:48.483Z,9.00
2022-09-30T01:03:15.586Z,9.00
2022-09-30T01:05:42.578Z,9.00
2022-09-30T01:08:09.925Z,9.00
2022-09-30T01:10:37.535Z,8.90
2022-09-30T01:13:04.730Z,8.90
2022-09-30T01:15:57.862Z,9.00
2022-09-30T01:18:28.327Z,9.00
2022-09-30T01:20:55.526Z,9.00
2022-09-30T01:23:37.291Z,9.00
2022-09-30T01:26:07.318Z,9.10
2022-09-30T01:28:42.163Z,9.10
2022-09-30T01:31:31.138Z,9.00
2022-09-30T01:34:04.227Z,9.00
2022-09-30T01:36:34.649Z,9.00
2022-09-30T01:39:05.315Z,9.00
2022-09-30T01:41:32.303Z,9.10
2022-09-30T01:43:59.277Z,9.10
2022-09-30T01:46:33.231Z,9.10
2022-09-30T01:49:19.323Z,9.00
2022-09-30T01:52:00.464Z,8.90
2022-09-30T01:54:32.560Z,8.90
2022-09-30T01:57:03.727Z,8.90
2022-09-30T01:59:32.506Z,8.90
2022-09-30T02:02:02.201Z,8.90
2022-09-30T02:04:31.310Z,8.90
2022-09-30T02:06:59.947Z,8.90
2022-09-30T02:09:28.347Z,8.90
2022-09-30T02:11:56.430Z,9.00
2022-09-30T02:14:28.289Z,8.90
2022-09-30T02:16:59.396Z,8.90
2022-09-30T02:19:28.928Z,8.90
2022-09-30T02:21:56.909Z,8.90
2022-09-30T02:24:25.168Z,8.90
2022-09-30T02:26:54.041Z,8.90
2022-09-30T02:29:28.609Z,8.90
2022-09-30T02:31:56.254Z,8.90
2022-09-30T02:34:27.979Z,8.80
2022-09-30T02:37:00.655Z,8.70
2022-09-30T02:39:40.860Z,8.70
2022-09-30T02:42:11.503Z,8.70
2022-09-30T02:44:38.614Z,8.70
2022-09-30T02:47:09.835Z,8.70
2022-09-30T02:49:45.775Z,8.60
2022-09-30T02:52:16.118Z,8.60
2022-09-30T02:55:01.492Z,8.50
2022-09-30T02:57:35.563Z,8.40
2022-09-30T03:00:03.612Z,8.30
2022-09-30T03:02:31.142Z,8.20
2022-09-30T03:04:58.143Z,8.20
2022-09-30T03:07:25.113Z,8.20
2022-09-30T03:09:55.778Z,8.10
2022-09-30T03:12:46.127Z,8.10
2022-09-30T03:15:13.106Z,8.20
2022-09-30T03:17:49.322Z,8.20
2022-09-30T03:20:35.069Z,8.10
2022-09-30T03:23:20.782Z,8.10
2022-09-30T03:25:47.779Z,8.10
2022-09-30T03:28:34.628Z,8.00
2022-09-30T03:31:10.947Z,8.00
2022-09-30T03:33:38.054Z,8.00
2022-09-30T03:36:09.587Z,8.00
2022-09-30T03:38:39.563Z,8.00
2022-09-30T03:41:08.449Z,8.00
2022-09-30T03:43:36.968Z,7.90
2022-09-30T03:46:06.850Z,8.00
2022-09-30T03:48:33.901Z,8.10
2022-09-30T03:51:00.877Z,8.10
2022-09-30T03:53:28.504Z,8.10
2022-09-30T03:55:55.510Z,8.00
2022-09-30T03:58:25.525Z,8.10
2022-09-30T04:00:53.530Z,8.10
2022-09-30T04:03:21.138Z,8.20
2022-09-30T04:05:48.155Z,8.20
2022-09-30T04:08:15.387Z,8.20
2022-09-30T04:10:42.571Z,8.20
2022-09-30T04:13:09.644Z,8.10
2022-09-30T04:15:36.730Z,8.00
2022-09-30T04:18:04.100Z,7.90
2022-09-30T04:20:31.345Z,8.00
2022-09-30T04:22:59.167Z,8.00
2022-09-30T04:25:26.589Z,8.00
2022-09-30T04:27:54.046Z,8.10
2022-09-30T04:30:24.983Z,8.00
2022-09-30T04:32:53.502Z,8.00
2022-09-30T04:35:20.518Z,7.90
2022-09-30T04:37:47.536Z,7.90
2022-09-30T04:40:14.914Z,7.80
2022-09-30T04:42:42.875Z,7.70
2022-09-30T04:45:10.761Z,7.70
2022-09-30T04:47:37.762Z,7.70
2022-09-30T04:50:05.294Z,7.70
2022-09-30T04:52:32.282Z,7.80
2022-09-30T04:55:07.093Z,7.80
2022-09-30T04:57:34.142Z,7.80
2022-09-30T05:00:01.380Z,7.80
2022-09-30T05:02:28.452Z,7.70
2022-09-30T05:04:55.494Z,7.70
2022-09-30T05:07:22.491Z,7.80
2022-09-30T05:09:49.493Z,7.80
2022-09-30T05:12:16.489Z,7.80
2022-09-30T05:14:43.491Z,7.80
2022-09-30T05:17:10.482Z,7.70
2022-09-30T05:19:37.482Z,7.60
2022-09-30T05:22:04.479Z,7.60
2022-09-30T05:24:31.470Z,7.60
2022-09-30T05:26:58.465Z,7.60
2022-09-30T05:29:25.451Z,7.60
2022-09-30T05:31:52.487Z,7.70
2022-09-30T05:34:21.258Z,7.70
2022-09-30T05:36:48.290Z,7.70
2022-09-30T05:39:15.278Z,7.60
2022-09-30T05:41:42.362Z,7.60
2022-09-30T05:44:10.090Z,7.70
2022-09-30T05:46:37.167Z,7.80
2022-09-30T05:49:04.224Z,7.80
2022-09-30T05:51:31.366Z,7.80
2022-09-30T05:53:58.398Z,7.80
2022-09-30T05:56:25.438Z,7.80
2022-09-30T05:58:52.682Z,7.90
2022-09-30T06:01:19.674Z,7.90
2022-09-30T06:03:47.837Z,8.00
2022-09-30T06:06:15.057Z,8.00
2022-09-30T06:08:43.439Z,8.20
2022-09-30T06:11:11.894Z,8.20
2022-09-30T06:13:39.699Z,8.30
2022-09-30T06:16:07.023Z,8.40
2022-09-30T06:18:34.193Z,8.40
2022-09-30T06:21:02.312Z,8.40
2022-09-30T06:23:30.023Z,8.50
2022-09-30T06:25:57.917Z,8.50
2022-09-30T06:28:24.919Z,8.60
2022-09-30T06:30:51.940Z,8.60
2022-09-30T06:33:18.927Z,8.60
2022-09-30T06:35:47.387Z,8.70
2022-09-30T06:38:15.778Z,8.90
2022-09-30T06:40:43.269Z,8.80
2022-09-30T06:43:11.387Z,8.80
2022-09-30T06:45:38.457Z,9.00
2022-09-30T06:48:05.735Z,9.10
2022-09-30T06:50:32.928Z,9.30
2022-09-30T06:53:00.296Z,9.50
2022-09-30T06:55:27.936Z,9.60
2022-09-30T06:57:56.037Z,9.80
2022-09-30T07:00:23.496Z,9.90
2022-09-30T07:02:50.489Z,10.10
2022-09-30T07:05:17.541Z,10.20
2022-09-30T07:07:44.535Z,10.30
2022-09-30T07:10:11.584Z,10.40
2022-09-30T07:12:38.552Z,10.40
2022-09-30T07:15:08.211Z,10.30
2022-09-30T07:17:37.242Z,10.40
2022-09-30T07:20:04.348Z,10.40
2022-09-30T07:22:32.146Z,10.30
2022-09-30T07:24:59.532Z,10.20
2022-09-30T07:27:26.985Z,10.50
2022-09-30T07:30:09.267Z,10.60
2022-09-30T07:32:38.546Z,10.80
2022-09-30T07:35:06.228Z,10.90
2022-09-30T07:37:35.974Z,11.00
2022-09-30T07:40:06.664Z,11.20
2022-09-30T07:42:33.737Z,11.30
2022-09-30T07:45:01.642Z,11.30
2022-09-30T07:47:28.653Z,11.40
2022-09-30T07:49:55.742Z,11.40
2022-09-30T07:52:22.768Z,11.40
2022-09-30T07:54:50.867Z,11.40
2022-09-30T07:57:18.052Z,11.30
2022-09-30T07:59:45.043Z,11.20
2022-09-30T08:02:14.051Z,11.40
2022-09-30T08:04:44.003Z,11.30
2022-09-30T08:07:11.680Z,11.00
2022-09-30T08:09:38.783Z,11.30
2022-09-30T08:12:05.870Z,11.40
2022-09-30T08:14:32.944Z,11.50
2022-09-30T08:17:00.543Z,11.50
2022-09-30T08:19:28.407Z,11.60
2022-09-30T08:21:55.553Z,11.60
2022-09-30T08:24:23.307Z,11.80
2022-09-30T08:26:50.721Z,11.70
2022-09-30T08:29:20.716Z,11.60
2022-09-30T08:31:52.576Z,11.90
2022-09-30T08:34:19.803Z,12.20
2022-09-30T08:36:46.802Z,12.20
2022-09-30T08:39:13.879Z,12.20
2022-09-30T08:41:46.369Z,12.30
2022-09-30T08:44:16.422Z,12.10
2022-09-30T08:46:47.195Z,12.40
2022-09-30T08:49:26.418Z,12.60
2022-09-30T08:51:53.444Z,12.70
2022-09-30T08:54:21.362Z,12.60
2022-09-30T08:56:48.382Z,12.90
2022-09-30T08:59:27.963Z,13.20
2022-09-30T09:01:58.494Z,13.20
2022-09-30T09:04:25.637Z,13.30
2022-09-30T09:07:03.073Z,13.50
2022-09-30T09:09:34.290Z,13.50
2022-09-30T09:12:03.315Z,13.70
2022-09-30T09:14:30.892Z,13.80
2022-09-30T09:17:21.239Z,13.80
2022-09-30T09:19:57.519Z,13.80
2022-09-30T09:22:25.523Z,13.90
2022-09-30T09:24:53.479Z,13.70
2022-09-30T09:27:20.635Z,13.80
2022-09-30T09:30:01.398Z,13.70
2022-09-30T09:32:29.490Z,13.60
2022-09-30T09:35:09.752Z,13.60
2022-09-30T09:37:58.635Z,13.60
2022-09-30T09:40:57.389Z,13.30
2022-09-30T09:43:30.613Z,12.80
2022-09-30T09:46:00.507Z,13.00
2022-09-30T09:48:29.154Z,13.00
2022-09-30T09:51:14.690Z,13.00
2022-09-30T09:53:48.597Z,13.10
2022-09-30T09:56:18.916Z,12.80
2022-09-30T09:59:24.776Z,12.60
2022-09-30T10:01:52.807Z,12.80
2022-09-30T10:04:23.890Z,12.80
2022-09-30T10:06:51.383Z,12.90
2022-09-30T10:09:24.208Z,13.00
2022-09-30T10:12:17.435Z,13.00
2022-09-30T10:14:58.053Z,13.10
2022-09-30T10:17:32.950Z,12.90
2022-09-30T10:20:01.244Z,12.90
2022-09-30T10:22:30.364Z,13.30
2022-09-30T10:25:16.199Z,13.70
2022-09-30T10:27:50.797Z,13.80
2022-09-30T10:30:34.197Z,13.80
2022-09-30T10:33:03.542Z,13.90
2022-09-30T10:35:30.558Z,14.10
2022-09-30T10:37:58.026Z,14.20
2022-09-30T10:40:27.470Z,14.00
2022-09-30T10:42:54.499Z,14.00
2022-09-30T10:45:22.454Z,14.00
2022-09-30T10:47:50.006Z,13.80
2022-09-30T10:50:20.534Z,13.80
2022-09-30T10:52:50.779Z,13.80
2022-09-30T10:55:26.067Z,13.90
2022-09-30T10:57:53.517Z,14.00
2022-09-30T11:00:21.964Z,14.20
2022-09-30T11:02:54.043Z,14.20
2022-09-30T11:05:25.893Z,14.30
2022-09-30T11:07:52.938Z,14.60
2022-09-30T11:10:29.082Z,14.60
2022-09-30T11:12:56.319Z,14.60
2022-09-30T11:15:28.756Z,14.50
2022-09-30T11:18:04.308Z,14.20
2022-09-30T11:20:32.604Z,14.20
2022-09-30T11:22:59.650Z,14.30
2022-09-30T11:25:44.698Z,14.30
2022-09-30T11:28:24.007Z,14.30
2022-09-30T11:31:11.394Z,14.40
2022-09-30T11:33:57.301Z,14.40
2022-09-30T11:36:27.765Z,14.50
2022-09-30T11:38:57.983Z,14.60
2022-09-30T11:41:29.486Z,14.50
2022-09-30T11:43:56.619Z,14.30
2022-09-30T11:46:42.462Z,14.40
2022-09-30T11:49:09.567Z,14.20
2022-09-30T11:51:55.355Z,14.10
2022-09-30T11:54:41.256Z,14.20
2022-09-30T11:57:13.704Z,14.30
2022-09-30T11:59:45.788Z,14.30
2022-09-30T12:02:33.131Z,14.10
2022-09-30T12:05:03.474Z,13.90
2022-09-30T12:07:36.514Z,13.80
2022-09-30T12:10:15.729Z,13.70
2022-09-30T12:12:42.846Z,13.70
2022-09-30T12:15:12.444Z,13.70
2022-09-30T12:17:41.095Z,13.70
2022-09-30T12:20:27.063Z,13.80
2022-09-30T12:22:56.019Z,13.80
2022-09-30T12:25:24.727Z,13.80
2022-09-30T12:27:54.392Z,13.80
2022-09-30T12:30:23.852Z,13.90
2022-09-30T12:33:00.095Z,13.90
2022-09-30T12:35:33.239Z,13.80
2022-09-30T12:38:15.503Z,14.00
2022-09-30T12:40:57.993Z,14.10
2022-09-30T12:43:25.037Z,14.20
2022-09-30T12:45:52.152Z,14.40
2022-09-30T12:48:20.786Z,14.60
2022-09-30T12:50:48.751Z,14.70
2022-09-30T12:53:17.692Z,14.80
2022-09-30T12:55:44.684Z,14.50
2022-09-30T12:58:31.175Z,14.50
2022-09-30T13:01:00.330Z,14.60
2022-09-30T13:03:27.478Z,14.70
2022-09-30T13:05:58.043Z,14.70
2022-09-30T13:08:31.871Z,14.70
2022-09-30T13:10:59.743Z,14.70
2022-09-30T13:13:27.818Z,14.60
2022-09-30T13:16:02.155Z,14.40
2022-09-30T13:18:32.411Z,14.50
2022-09-30T13:21:05.481Z,14.50
2022-09-30T13:23:48.511Z,14.60
2022-09-30T13:26:34.766Z,14.60
2022-09-30T13:29:01.886Z,14.50
2022-09-30T13:31:30.021Z,14.50
2022-09-30T13:34:01.376Z,14.60
2022-09-30T13:36:30.540Z,14.60
2022-09-30T13:39:16.627Z,14.60
2022-09-30T13:41:43.947Z,14.60
2022-09-30T13:44:19.712Z,14.60
2022-09-30T13:46:49.743Z,14.40
2022-09-30T13:49:18.504Z,14.40
2022-09-30T13:51:45.746Z,14.50
2022-09-30T13:54:20.601Z,14.30
2022-09-30T13:56:47.634Z,14.40
2022-09-30T13:59:15.095Z,14.40
2022-09-30T14:02:01.558Z,14.50
2022-09-30T14:04:45.889Z,14.50
2022-09-30T14:07:13.551Z,14.70
2022-09-30T14:09:55.886Z,14.40
2022-09-30T14:12:42.664Z,14.40
2022-09-30T14:15:22.179Z,14.50
2022-09-30T14:17:52.415Z,14.60
2022-09-30T14:20:22.878Z,14.50
2022-09-30T14:22:49.938Z,14.50
2022-09-30T14:25:18.047Z,14.60
2022-09-30T14:28:21.926Z,14.60
2022-09-30T14:31:08.091Z,14.60
2022-09-30T14:33:35.195Z,14.40
2022-09-30T14:36:02.456Z,14.50
2022-09-30T14:38:30.214Z,14.40
2022-09-30T14:40:58.563Z,14.30
2022-09-30T14:43:28.442Z,14.30
2022-09-30T14:45:56.094Z,14.10
2022-09-30T14:48:24.102Z,14.20
2022-09-30T14:51:00.387Z,14.10
2022-09-30T14:53:31.492Z,14.00
2022-09-30T14:56:00.337Z,14.00
2022-09-30T14:58:31.136Z,14.10
2022-09-30T15:01:08.348Z,14.10
2022-09-30T15:03:36.954Z,14.10
2022-09-30T15:06:04.264Z,14.10
2022-09-30T15:08:31.294Z,14.20
2022-09-30T15:10:58.356Z,14.20
2022-09-30T15:13:27.925Z,14.10
2022-09-30T15:15:55.071Z,14.00
2022-09-30T15:18:32.380Z,14.00
2022-09-30T15:21:10.218Z,14.00
2022-09-30T15:23:37.714Z,14.10
2022-09-30T15:26:06.010Z,14.10
2022-09-30T15:28:35.020Z,14.20
2022-09-30T15:31:02.918Z,14.20
2022-09-30T15:33:31.890Z,14.20
2022-09-30T15:36:03.289Z,14.20
2022-09-30T15:38:30.454Z,14.10
2022-09-30T15:41:03.254Z,13.90
2022-09-30T15:43:33.087Z,13.80
2022-09-30T15:46:15.409Z,13.80
2022-09-30T15:48:44.871Z,13.70
2022-09-30T15:51:23.925Z,13.70
2022-09-30T15:53:51.471Z,13.80
2022-09-30T15:56:21.629Z,13.80
2022-09-30T15:59:01.728Z,13.80
2022-09-30T16:01:39.076Z,13.70
2022-09-30T16:04:09.405Z,13.70
2022-09-30T16:06:43.253Z,13.70
2022-09-30T16:09:20.684Z,13.60
2022-09-30T16:12:03.599Z,13.60
2022-09-30T16:14:49.928Z,13.60
2022-09-30T16:17:20.018Z,13.50
2022-09-30T16:19:51.122Z,13.50
2022-09-30T16:22:37.006Z,13.50
2022-09-30T16:25:19.578Z,13.40
2022-09-30T16:27:46.708Z,13.30
2022-09-30T16:30:14.508Z,13.30
2022-09-30T16:32:42.449Z,13.30
2022-09-30T16:35:19.467Z,13.30
2022-09-30T16:37:46.595Z,13.20
2022-09-30T16:40:20.919Z,13.20
2022-09-30T16:42:47.966Z,13.10
2022-09-30T16:45:15.207Z,13.10
2022-09-30T16:47:43.200Z,13.10
2022-09-30T16:50:16.158Z,13.10
2022-09-30T16:52:43.419Z,13.00
2022-09-30T16:55:10.484Z,12.90
2022-09-30T16:57:38.852Z,12.90
2022-09-30T17:00:06.210Z,12.90
2022-09-30T17:02:33.283Z,12.90
2022-09-30T17:05:00.322Z,12.80
2022-09-30T17:07:27.399Z,12.80
2022-09-30T17:09:54.431Z,12.80
2022-09-30T17:12:21.466Z,12.80
2022-09-30T17:14:50.298Z,12.80
2022-09-30T17:17:17.307Z,12.80
2022-09-30T17:19:44.349Z,12.80
2022-09-30T17:22:11.530Z,12.70
2022-09-30T17:24:38.620Z,12.70
2022-09-30T17:27:06.126Z,12.80
2022-09-30T17:29:33.313Z,12.80
2022-09-30T17:32:00.733Z,12.80
2022-09-30T17:34:28.020Z,12.70
2022-09-30T17:36:56.398Z,12.70
2022-09-30T17:39:25.373Z,12.80
2022-09-30T17:42:11.099Z,12.70
2022-09-30T17:44:39.113Z,12.70
2022-09-30T17:47:06.151Z,12.80
2022-09-30T17:49:36.829Z,12.70
2022-09-30T17:52:03.859Z,12.60
2022-09-30T17:54:31.667Z,12.60
2022-09-30T17:56:58.764Z,12.50
2022-09-30T17:59:26.900Z,12.40
2022-09-30T18:01:56.288Z,12.40
2022-09-30T18:04:26.017Z,12.40
2022-09-30T18:06:56.131Z,12.40
2022-09-30T18:09:23.198Z,12.30
2022-09-30T18:11:50.368Z,12.30
2022-09-30T18:14:17.571Z,12.30
2022-09-30T18:16:45.033Z,12.30
2022-09-30T18:21:44.142Z,12.30
2022-09-30T18:24:11.243Z,12.40
2022-09-30T18:26:38.309Z,12.40
2022-09-30T18:29:06.114Z,12.40
2022-09-30T18:31:37.473Z,12.30
2022-09-30T18:34:05.961Z,12.30
2022-09-30T18:36:33.003Z,12.20
2022-09-30T18:39:00.943Z,12.10
2022-09-30T18:41:28.163Z,12.10
2022-09-30T18:44:02.331Z,12.10
2022-09-30T18:46:29.874Z,12.10
2022-09-30T18:48:57.693Z,12.10
2022-09-30T18:51:25.125Z,12.20
2022-09-30T18:53:57.428Z,12.30
2022-09-30T18:56:31.668Z,12.30
2022-09-30T18:59:04.446Z,12.30
2022-09-30T19:01:33.022Z,12.30
2022-09-30T19:04:03.782Z,12.30
2022-09-30T19:06:30.943Z,12.20
2022-09-30T19:08:57.961Z,12.10
2022-09-30T19:11:25.959Z,12.10
2022-09-30T19:13:53.029Z,12.00
2022-09-30T19:16:20.156Z,12.00
2022-09-30T19:18:47.278Z,12.00
2022-09-30T19:21:15.112Z,12.00
2022-09-30T19:23:42.123Z,11.90
2022-09-30T19:26:10.777Z,11.90
2022-09-30T19:28:38.146Z,11.90
2022-09-30T19:31:08.577Z,12.00
2022-09-30T19:33:42.224Z,12.00
2022-09-30T19:36:16.060Z,12.00
2022-09-30T19:38:43.718Z,12.00
2022-09-30T19:41:10.979Z,12.00
2022-09-30T19:43:40.714Z,11.90
2022-09-30T19:46:08.110Z,11.90
2022-09-30T19:48:35.409Z,12.00
2022-09-30T19:51:07.105Z,11.90
2022-09-30T19:53:39.592Z,11.90
2022-09-30T19:56:12.474Z,11.90
2022-09-30T19:58:40.174Z,11.90
2022-09-30T20:01:07.292Z,11.90
2022-09-30T20:03:34.790Z,12.00
2022-09-30T20:06:03.410Z,12.00
2022-09-30T20:08:30.663Z,12.00
2022-09-30T20:11:01.662Z,11.90
2022-09-30T20:13:29.125Z,11.80
2022-09-30T20:15:58.364Z,11.70
2022-09-30T20:18:25.410Z,11.70
2022-09-30T20:20:53.265Z,11.70
2022-09-30T20:23:20.771Z,11.70
2022-09-30T20:25:47.925Z,11.70
2022-09-30T20:28:15.288Z,11.70
2022-09-30T20:30:48.418Z,11.70
2022-09-30T20:33:16.434Z,11.70
2022-09-30T20:35:43.420Z,11.70
2022-09-30T20:38:14.540Z,11.80
2022-09-30T20:40:41.750Z,11.70
2022-09-30T20:43:08.850Z,11.70
2022-09-30T20:45:36.022Z,11.70
2022-09-30T20:48:03.347Z,11.60
2022-09-30T20:50:36.596Z,11.60
2022-09-30T20:53:10.228Z,11.60
2022-09-30T20:55:37.858Z,11.70
2022-09-30T20:58:05.551Z,11.70
2022-09-30T21:00:36.362Z,11.70
2022-09-30T21:03:03.803Z,11.60
2022-09-30T21:05:31.143Z,11.60
2022-09-30T21:08:00.494Z,11.70
2022-09-30T21:10:28.412Z,11.60
2022-09-30T21:13:00.495Z,11.60
2022-09-30T21:15:28.096Z,11.50
2022-09-30T21:17:55.170Z,11.40
2022-09-30T21:20:22.235Z,11.50
2022-09-30T21:22:49.450Z,11.40
2022-09-30T21:25:16.584Z,11.40
2022-09-30T21:27:47.038Z,11.30
2022-09-30T21:30:14.356Z,11.20
2022-09-30T21:32:42.555Z,11.20
2022-09-30T21:35:09.804Z,11.40
2022-09-30T21:37:37.275Z,11.40
2022-09-30T21:40:04.394Z,11.40
2022-09-30T21:42:31.397Z,11.40
2022-09-30T21:44:58.589Z,11.40
2022-09-30T21:47:25.601Z,11.40
2022-09-30T21:49:53.086Z,11.40
2022-09-30T21:52:21.886Z,11.30
2022-09-30T21:54:52.071Z,11.30
2022-09-30T21:57:19.109Z,11.30
2022-09-30T21:59:50.254Z,11.20
2022-09-30T22:02:17.559Z,11.20
2022-09-30T22:04:44.758Z,11.10
2022-09-30T22:07:11.739Z,11.10
2022-09-30T22:09:39.752Z,11.10
2022-09-30T22:12:08.802Z,11.10
2022-09-30T22:14:36.625Z,11.10
2022-09-30T22:17:05.843Z,11.10
2022-09-30T22:19:32.862Z,11.10
2022-09-30T22:22:01.245Z,11.10
2022-09-30T22:24:28.278Z,11.00
2022-09-30T22:26:57.266Z,11.00
2022-09-30T22:29:24.303Z,10.90
2022-09-30T22:31:51.348Z,10.90
2022-09-30T22:34:37.064Z,10.90
2022-09-30T22:37:22.654Z,10.80
2022-09-30T22:39:49.647Z,10.70
2022-09-30T22:42:16.723Z,10.60
2022-09-30T22:44:43.746Z,10.60
2022-09-30T22:47:10.798Z,10.50
2022-09-30T22:49:37.806Z,10.50
2022-09-30T22:52:06.068Z,10.50
2022-09-30T22:54:33.754Z,10.50
2022-09-30T22:57:00.894Z,10.50
2022-09-30T22:59:28.257Z,10.40
2022-09-30T23:01:55.910Z,10.40
2022-09-30T23:04:24.498Z,10.30
2022-09-30T23:06:52.402Z,10.30
2022-09-30T23:09:20.672Z,10.30
2022-09-30T23:11:48.336Z,10.20
2022-09-30T23:14:18.031Z,10.20
2022-09-30T23:16:45.092Z,10.20
2022-09-30T23:19:12.103Z,10.20
2022-09-30T23:21:39.114Z,10.20
2022-09-30T23:24:06.246Z,10.20
2022-09-30T23:26:34.173Z,10.20
2022-09-30T23:29:02.641Z,10.20
2022-09-30T23:31:29.775Z,10.20
2022-09-30T23:33:57.431Z,10.20
2022-09-30T23:36:27.065Z,10.30
2022-09-30T23:38:54.094Z,10.40
2022-09-30T23:41:21.384Z,10.50
2022-09-30T23:43:48.670Z,10.60
2022-09-30T23:46:16.261Z,10.60
2022-09-30T23:48:44.704Z,10.70
2022-09-30T23:51:12.235Z,10.70
2022-09-30T23:53:39.261Z,10.70
2022-09-30T23:56:06.967Z,10.70
2022-09-30T23:58:33.999Z,10.70
